Главная страница
METAR-TAF:

METAR-TAF

Аэропорты :

Hazleton, Пенсильвания, США

широта: 40-59-12N, долгота: 075-59-42W, высота над уровнем моря: 489 м

Текущие метеонаблюдения

Эта сводка был подготовлена 12 минут назад, в 09:16 UTC
Штиль
Температура 2°C
Влажность 75%
Давление 1022 hPa
Видимость: 16.1 км
Сплошная облачность на высоте 4100 фута

METAR: KHZL 220916Z AUTO 00000KT 10SM OVC041 02/M02 A3019 RMK AO2

Время: 05:28 (09:28 UTC)


TAF: отсутствует

Метеонаблюдения и прогнозы для более 4000 аэропортов (сводки METAR и TAF).

Имеющиеся станции представлены на карте желтыми и красными точками.

Чтобы увидеть название станции, наведите на нее мышь.

Затем щелкните, чтобы увидеть метеонаблюдения и метеопрогнозы.

Управление картой: чтобы увеличить масштаб, щелкните зеленые кнопки с черным крестиком; чтобы уменьшить масштаб, щелкните зеленую кнопку с тире; для просмотра соседних карт щелкайте зеленые стрелки.


METAR-TAF: